Aérodrome :
LOGIN :

S'inscrire | Disclaimer

   EN    FR    IT 

 










Légende :    VFR   VFR Marginal   IFR   IFR Intensif   IFR Très Intensif
Visi : 
Plafond : 
>= 8 km
>= 3000ft
5 à 8 km
1000 à 3000 ft
1500m à 5 km
500 à 1000 ft
800 à 1500m
200 à 500 ft
< 800m
< 200 ft
Symboles :   Orages  Brouillard  Fortes neiges  Fortes précipitations  Vent > 20 kt
SIGMETs :   Divers  Orages  Givrage  Turbulence  Onde Orograph.  Cendres Volcan.






- Altitude de l'aérodrome : 464 ft
- Code IATA : EVX


LFOE - Evreux

DERNIER METAR :
  • 260500Z AUTO 27007KT CAVOK 07/05 Q1010 TEMPO 4000 -SHRA SCT040TCU

METARs EXPIRÉS :
  • 260430Z AUTO 28007KT CAVOK 07/05 Q1010 TEMPO 4000 -SHRA SCT040TCU
  • 260400Z AUTO 27006KT CAVOK 08/05 Q1010 TEMPO 4000 -SHRA SCT040TCU
  • 260330Z AUTO 28009KT 9999 FEW028 08/05 Q1009 TEMPO 4000 -SHRA SCT040TCU
  • 260300Z AUTO 28009KT CAVOK 09/06 Q1009 TEMPO 4000 -SHRA SCT040TCU
  • 260230Z AUTO 27007KT CAVOK 08/06 Q1009

TAF TAF LFOE
Valide du 26 à 03h jusqu'au 27 à 03h UTC


260200Z 2603/2703 26008KT CAVOK
PROB30
TEMPO 2603/2609 4000 -SHRA SCT040TCU
PROB40
TEMPO 2604/2607 SCT008
BECMG 2607/2610 32015G25KT
BECMG 2616/2618 31010G20KT
BECMG 2619/2621 BKN017
TEMPO 2622/2703 4000 -RA BKN012



MET'MAP, la Météo Aéronautique d'un coup d'oeil ! - Copyright ORBIFLY Décembre 2007 - Disclaimer

ORBIFLY MET'MAP TEAM :

Programmation & Développement : Alexandra Zaïnal
Sur une idée originale de : Baudouin d'Aumeries
Assistance à la programmation : Marc-Olivier Méhu
Soutien technique & logistique : Manuel Goepfert

Contact : metmap@orbifly.com




SOURCES & CREDITS :

   NOAA